Time;durP1;ratioP1;P1;durP2;ratioP2;P2;SDS_P1;SDS_P2;PMS_P1;PMS_P2;Temp;Humidity;BMP_temperature;BMP_pressure;BME280_temperature;BME280_humidity;BME280_pressure;Samples;Min_cycle;Max_cycle;Signal;HPM_P1;HPM_P2
2022/02/19 00:01:52;;;;;;;10.07;1.00;;;;;;;;;;4989589;28;20269;-85
2022/02/19 00:04:19;;;;;;;6.90;1.10;;;;;;;;;;4986316;28;20209;-82
2022/02/19 00:06:46;;;;;;;5.40;1.23;;;;;;;;;;4985796;28;20231;-86
2022/02/19 00:09:14;;;;;;;9.17;0.90;;;;;;;;;;4989507;28;20240;-84
2022/02/19 00:11:42;;;;;;;9.63;1.23;;;;;;;;;;4985549;28;20289;-85
2022/02/19 00:14:09;;;;;;;8.35;1.20;;;;;;;;;;4990160;28;20522;-88
2022/02/19 00:16:37;;;;;;;8.20;1.53;;;;;;;;;;4989086;28;20244;-84
2022/02/19 00:19:04;;;;;;;5.37;1.10;;;;;;;;;;4990664;28;20209;-82
2022/02/19 00:21:31;;;;;;;11.27;1.03;;;;;;;;;;4989386;28;20737;-84
2022/02/19 00:23:59;;;;;;;8.07;1.50;;;;;;;;;;4987838;28;20965;-84
2022/02/19 00:26:26;;;;;;;8.50;1.77;;;;;;;;;;4993471;28;20316;-83
2022/02/19 00:28:55;;;;;;;7.43;1.17;;;;;;;;;;4989836;28;20225;-82
2022/02/19 00:31:22;;;;;;;5.13;1.10;;;;;;;;;;4988328;28;20215;-88
2022/02/19 00:33:53;;;;;;;11.23;1.10;;;;;;;;;;4988415;28;20326;-87
2022/02/19 00:36:20;;;;;;;12.47;0.90;;;;;;;;;;4989496;28;20233;-85
2022/02/19 00:38:48;;;;;;;9.50;1.33;;;;;;;;;;4987645;28;20236;-85
2022/02/19 00:41:15;;;;;;;8.10;0.90;;;;;;;;;;4993658;28;20208;-84
2022/02/19 00:43:42;;;;;;;5.60;0.80;;;;;;;;;;4986959;28;20219;-85
2022/02/19 00:46:11;;;;;;;4.37;1.00;;;;;;;;;;4988876;28;20316;-86
2022/02/19 00:48:38;;;;;;;4.57;0.90;;;;;;;;;;4985872;28;20205;-85
2022/02/19 00:51:06;;;;;;;9.43;1.13;;;;;;;;;;4987969;28;20228;-86
2022/02/19 00:53:33;;;;;;;4.57;0.80;;;;;;;;;;4991413;28;20283;-85
2022/02/19 00:56:01;;;;;;;7.07;0.87;;;;;;;;;;4990450;28;20229;-85
2022/02/19 00:58:28;;;;;;;5.63;0.77;;;;;;;;;;4988677;28;20209;-85
2022/02/19 01:00:55;;;;;;;4.97;0.90;;;;;;;;;;4991112;28;20205;-83
2022/02/19 01:03:24;;;;;;;10.10;1.13;;;;;;;;;;4985306;28;20966;-86
2022/02/19 01:05:51;;;;;;;13.03;1.20;;;;;;;;;;4988297;28;20764;-87
2022/02/19 01:08:18;;;;;;;4.23;0.70;;;;;;;;;;4986462;28;20214;-84
2022/02/19 01:10:48;;;;;;;3.87;0.77;;;;;;;;;;4984993;28;20209;-84
2022/02/19 01:13:15;;;;;;;10.43;1.10;;;;;;;;;;4988034;28;20307;-85
2022/02/19 01:15:42;;;;;;;6.68;1.35;;;;;;;;;;4987714;28;20459;-84
2022/02/19 01:18:09;;;;;;;7.60;1.10;;;;;;;;;;4991994;28;20208;-84
2022/02/19 01:20:41;;;;;;;8.98;1.58;;;;;;;;;;4987008;28;20523;-84
2022/02/19 01:23:09;;;;;;;9.77;0.90;;;;;;;;;;4986938;28;20209;-85
2022/02/19 01:25:36;;;;;;;5.13;1.13;;;;;;;;;;4988020;28;20316;-84
2022/02/19 01:28:03;;;;;;;5.03;0.67;;;;;;;;;;4986317;28;20268;-85
2022/02/19 01:30:31;;;;;;;11.10;1.00;;;;;;;;;;4989852;28;20206;-84
2022/02/19 01:32:58;;;;;;;7.43;1.10;;;;;;;;;;4991239;28;20288;-82
2022/02/19 01:35:25;;;;;;;11.43;1.23;;;;;;;;;;4989183;28;20253;-84
2022/02/19 01:37:54;;;;;;;5.37;1.10;;;;;;;;;;4988735;28;20237;-83
2022/02/19 01:40:21;;;;;;;11.40;1.53;;;;;;;;;;4983594;28;20213;-83
2022/02/19 01:42:48;;;;;;;8.87;0.93;;;;;;;;;;4983523;28;20280;-84
2022/02/19 01:45:17;;;;;;;6.10;1.00;;;;;;;;;;4987783;28;20637;-84
2022/02/19 01:47:45;;;;;;;6.50;0.80;;;;;;;;;;4985726;28;20217;-84
2022/02/19 01:50:13;;;;;;;8.60;1.50;;;;;;;;;;4987086;28;20208;-84
2022/02/19 01:52:42;;;;;;;10.33;1.10;;;;;;;;;;4986721;28;20232;-85
2022/02/19 01:55:11;;;;;;;6.53;1.13;;;;;;;;;;4982694;28;20237;-85
2022/02/19 01:57:38;;;;;;;6.63;0.77;;;;;;;;;;4987542;28;20205;-84
2022/02/19 02:00:06;;;;;;;7.10;1.60;;;;;;;;;;4981341;28;20233;-84
2022/02/19 02:02:34;;;;;;;8.13;0.93;;;;;;;;;;4980754;28;20205;-86
2022/02/19 02:05:01;;;;;;;11.70;1.45;;;;;;;;;;4984208;28;20463;-84
2022/02/19 02:07:29;;;;;;;4.90;1.20;;;;;;;;;;4984301;28;20385;-83
2022/02/19 02:09:57;;;;;;;7.83;1.10;;;;;;;;;;4991458;28;20214;-85
2022/02/19 02:12:26;;;;;;;9.27;1.20;;;;;;;;;;4988101;28;20658;-84
2022/02/19 02:14:53;;;;;;;11.10;0.70;;;;;;;;;;4989175;28;20292;-83
2022/02/19 02:17:21;;;;;;;3.83;0.83;;;;;;;;;;4991639;28;20325;-85
2022/02/19 02:19:48;;;;;;;9.37;1.40;;;;;;;;;;4990256;28;20316;-84
2022/02/19 02:22:16;;;;;;;6.60;1.33;;;;;;;;;;4989693;28;20224;-84
2022/02/19 02:24:44;;;;;;;5.60;0.77;;;;;;;;;;4984784;28;20360;-84
2022/02/19 02:27:13;;;;;;;6.20;1.03;;;;;;;;;;4985781;28;20344;-86
2022/02/19 02:29:41;;;;;;;9.13;1.30;;;;;;;;;;4986128;28;20382;-85
2022/02/19 02:32:09;;;;;;;4.13;0.67;;;;;;;;;;4986483;28;20198;-84
2022/02/19 02:34:47;;;;;;;4.63;0.70;;;;;;;;;;4987672;28;20236;-84
2022/02/19 02:37:14;;;;;;;8.02;1.38;;;;;;;;;;4985674;28;20479;-85
2022/02/19 02:39:43;;;;;;;8.23;1.07;;;;;;;;;;4987372;28;20245;-84
2022/02/19 02:42:10;;;;;;;6.28;0.93;;;;;;;;;;4982102;28;20563;-86
2022/02/19 02:44:40;;;;;;;4.90;0.80;;;;;;;;;;4986268;28;20555;-84
2022/02/19 02:47:08;;;;;;;6.40;1.20;;;;;;;;;;4987840;28;20244;-84
2022/02/19 02:49:35;;;;;;;5.20;0.70;;;;;;;;;;4983785;28;20221;-85
2022/02/19 02:52:02;;;;;;;5.27;0.83;;;;;;;;;;4990292;28;20240;-84
2022/02/19 02:54:30;;;;;;;4.40;0.57;;;;;;;;;;4988541;28;20225;-85
2022/02/19 02:56:58;;;;;;;2.90;0.47;;;;;;;;;;4989853;28;20217;-84
2022/02/19 02:59:25;;;;;;;8.60;0.93;;;;;;;;;;4989979;28;20673;-84
2022/02/19 03:01:53;;;;;;;8.30;1.10;;;;;;;;;;4990313;28;20293;-86
2022/02/19 03:04:20;;;;;;;8.83;1.43;;;;;;;;;;4983776;28;20205;-85
2022/02/19 03:06:47;;;;;;;9.30;1.13;;;;;;;;;;4981993;28;20240;-84
2022/02/19 03:09:15;;;;;;;7.50;0.83;;;;;;;;;;4983447;28;20273;-84
2022/02/19 03:11:42;;;;;;;5.33;1.10;;;;;;;;;;4981913;28;20197;-84
2022/02/19 03:14:11;;;;;;;5.87;0.70;;;;;;;;;;4981770;28;20260;-84
2022/02/19 03:16:38;;;;;;;3.77;0.80;;;;;;;;;;4983832;28;20248;-84
2022/02/19 03:19:06;;;;;;;4.77;0.97;;;;;;;;;;4985120;28;20209;-84
2022/02/19 03:21:33;;;;;;;4.67;0.60;;;;;;;;;;4985127;28;20506;-84
2022/02/19 03:24:01;;;;;;;10.10;1.63;;;;;;;;;;4986023;28;20993;-85
2022/02/19 03:26:28;;;;;;;9.90;1.07;;;;;;;;;;4981827;28;20638;-85
2022/02/19 03:28:55;;;;;;;1.93;0.60;;;;;;;;;;4989338;28;20228;-86
2022/02/19 03:31:25;;;;;;;8.43;0.97;;;;;;;;;;4985313;28;20207;-85
2022/02/19 03:33:52;;;;;;;6.80;0.77;;;;;;;;;;4987291;28;20228;-84
2022/02/19 03:36:19;;;;;;;5.80;0.93;;;;;;;;;;4988285;28;20645;-85
2022/02/19 03:38:47;;;;;;;6.13;0.93;;;;;;;;;;4987485;28;20221;-86
2022/02/19 03:41:14;;;;;;;5.07;1.10;;;;;;;;;;4988052;28;20240;-83
2022/02/19 03:43:41;;;;;;;9.03;0.93;;;;;;;;;;4995147;28;20907;-86
2022/02/19 03:46:08;;;;;;;8.77;1.33;;;;;;;;;;4983020;28;20263;-85
2022/02/19 03:48:37;;;;;;;10.27;0.90;;;;;;;;;;4983998;28;20216;-86
2022/02/19 03:51:05;;;;;;;5.07;0.97;;;;;;;;;;4987148;28;20206;-86
2022/02/19 03:53:33;;;;;;;3.33;0.60;;;;;;;;;;4987273;28;20701;-85
2022/02/19 03:56:00;;;;;;;7.97;1.30;;;;;;;;;;4988558;28;20524;-85
2022/02/19 03:58:27;;;;;;;12.23;1.00;;;;;;;;;;4987701;28;20268;-85
2022/02/19 04:00:54;;;;;;;3.90;0.90;;;;;;;;;;4986201;28;20292;-87
2022/02/19 04:03:21;;;;;;;6.50;1.00;;;;;;;;;;4988228;28;20233;-86
2022/02/19 04:05:50;;;;;;;4.53;1.00;;;;;;;;;;4984549;28;20260;-86
2022/02/19 04:08:17;;;;;;;9.07;1.40;;;;;;;;;;4990811;28;20213;-85
2022/02/19 04:10:44;;;;;;;10.83;1.10;;;;;;;;;;4991609;28;20627;-84
2022/02/19 04:13:12;;;;;;;6.43;1.10;;;;;;;;;;4987859;28;20221;-85
2022/02/19 04:15:39;;;;;;;6.63;1.00;;;;;;;;;;4989955;28;20296;-85
2022/02/19 04:18:06;;;;;;;9.70;1.60;;;;;;;;;;4994533;28;20232;-85
2022/02/19 04:20:33;;;;;;;4.57;1.10;;;;;;;;;;4993223;28;20217;-85
2022/02/19 04:23:02;;;;;;;5.13;0.90;;;;;;;;;;4990538;28;20209;-85
2022/02/19 04:25:29;;;;;;;7.47;1.10;;;;;;;;;;4993640;28;20228;-86
2022/02/19 04:27:56;;;;;;;6.67;1.13;;;;;;;;;;4991563;28;20285;-85
2022/02/19 04:30:24;;;;;;;11.03;1.00;;;;;;;;;;4990229;28;20236;-85
2022/02/19 04:32:56;;;;;;;4.27;1.30;;;;;;;;;;4993038;28;20229;-86
2022/02/19 04:35:23;;;;;;;6.97;1.23;;;;;;;;;;4986063;28;20221;-85
2022/02/19 04:37:51;;;;;;;5.80;1.03;;;;;;;;;;4991899;28;20201;-86
2022/02/19 04:40:19;;;;;;;8.07;1.03;;;;;;;;;;4989386;28;20268;-85
2022/02/19 04:42:47;;;;;;;7.20;1.17;;;;;;;;;;4991483;28;20244;-85
2022/02/19 04:45:14;;;;;;;5.50;1.10;;;;;;;;;;4986565;28;20673;-85
2022/02/19 04:47:42;;;;;;;5.57;1.23;;;;;;;;;;4985875;28;20673;-85
2022/02/19 04:50:10;;;;;;;7.93;1.23;;;;;;;;;;4986799;28;20308;-85
2022/02/19 04:52:37;;;;;;;8.87;1.20;;;;;;;;;;4986148;28;20208;-85
2022/02/19 04:55:04;;;;;;;9.10;1.13;;;;;;;;;;4984368;28;20233;-85
2022/02/19 04:57:33;;;;;;;11.33;1.10;;;;;;;;;;4986716;28;20336;-85
2022/02/19 05:00:00;;;;;;;11.17;0.93;;;;;;;;;;4986363;28;20707;-85
2022/02/19 05:02:28;;;;;;;2.13;0.50;;;;;;;;;;4989805;28;20261;-85
2022/02/19 05:04:55;;;;;;;9.93;1.00;;;;;;;;;;4989745;28;20237;-84
2022/02/19 05:07:22;;;;;;;7.17;0.70;;;;;;;;;;4987714;28;20213;-84
2022/02/19 05:09:49;;;;;;;6.47;0.67;;;;;;;;;;4988166;28;20217;-85
2022/02/19 05:12:16;;;;;;;5.40;0.80;;;;;;;;;;4989661;28;20284;-84
2022/02/19 05:14:45;;;;;;;4.70;1.00;;;;;;;;;;4993149;28;20246;-85
2022/02/19 05:19:41;;;;;;;9.60;1.20;;;;;;;;;;5009500;28;20243;-80
2022/02/19 05:22:08;;;;;;;4.75;1.60;;;;;;;;;;5010049;28;20526;-80
2022/02/19 05:24:35;;;;;;;5.63;0.90;;;;;;;;;;5012108;28;20204;-80
2022/02/19 05:27:02;;;;;;;4.40;0.90;;;;;;;;;;5009972;28;20220;-81
2022/02/19 05:29:29;;;;;;;6.20;1.00;;;;;;;;;;5009360;28;20201;-80
2022/02/19 05:31:58;;;;;;;5.07;0.77;;;;;;;;;;5008067;28;20211;-81
2022/02/19 05:34:25;;;;;;;3.00;0.70;;;;;;;;;;5007127;28;20705;-80
2022/02/19 05:36:52;;;;;;;8.97;0.90;;;;;;;;;;5009079;28;20709;-81
2022/02/19 05:39:19;;;;;;;4.80;1.00;;;;;;;;;;5009007;28;20204;-80
2022/02/19 05:41:46;;;;;;;7.53;0.77;;;;;;;;;;5011437;28;20212;-81
2022/02/19 05:44:13;;;;;;;5.33;1.37;;;;;;;;;;5007703;28;20219;-79
2022/02/19 05:46:41;;;;;;;7.20;0.87;;;;;;;;;;5008897;28;21943;-81
2022/02/19 05:49:11;;;;;;;4.23;0.90;;;;;;;;;;5005942;28;20600;-79
2022/02/19 05:51:38;;;;;;;5.93;0.60;;;;;;;;;;5007641;28;20330;-80
2022/02/19 05:54:05;;;;;;;4.93;0.60;;;;;;;;;;5009459;28;20613;-80
2022/02/19 05:56:33;;;;;;;13.67;1.63;;;;;;;;;;5007919;28;20312;-81
2022/02/19 05:59:00;;;;;;;2.43;0.80;;;;;;;;;;5011918;28;20239;-81
2022/02/19 06:01:27;;;;;;;1.47;0.83;;;;;;;;;;5006614;28;20239;-80
2022/02/19 06:03:54;;;;;;;7.80;0.90;;;;;;;;;;5008385;28;20209;-79
2022/02/19 06:06:22;;;;;;;10.43;1.50;;;;;;;;;;5010583;28;20717;-80
2022/02/19 06:08:50;;;;;;;5.37;1.20;;;;;;;;;;5009188;28;20220;-80
2022/02/19 06:11:17;;;;;;;6.07;1.23;;;;;;;;;;5010397;28;20203;-80
2022/02/19 06:13:44;;;;;;;8.43;0.93;;;;;;;;;;5008019;28;20208;-81
2022/02/19 06:16:11;;;;;;;14.13;1.40;;;;;;;;;;5006279;28;20226;-80
2022/02/19 06:18:38;;;;;;;6.33;0.93;;;;;;;;;;5009811;28;20226;-80
2022/02/19 06:21:05;;;;;;;7.63;0.90;;;;;;;;;;5008586;28;20200;-81
2022/02/19 06:23:34;;;;;;;8.50;1.07;;;;;;;;;;5007438;28;20307;-80
2022/02/19 06:26:01;;;;;;;7.73;0.70;;;;;;;;;;5008571;28;20220;-81
2022/02/19 06:28:28;;;;;;;3.53;0.63;;;;;;;;;;5006855;28;20436;-81
2022/02/19 06:30:56;;;;;;;4.10;1.20;;;;;;;;;;5007239;28;20196;-80
2022/02/19 06:33:23;;;;;;;9.23;2.07;;;;;;;;;;5007827;28;20204;-81
2022/02/19 06:35:50;;;;;;;4.90;0.90;;;;;;;;;;5006456;28;20249;-81
2022/02/19 06:38:17;;;;;;;5.50;0.90;;;;;;;;;;5006283;28;20268;-79
2022/02/19 06:40:46;;;;;;;7.10;0.97;;;;;;;;;;5005604;28;20212;-80
2022/02/19 06:43:16;;;;;;;7.07;1.30;;;;;;;;;;5005268;28;20224;-78
2022/02/19 06:45:43;;;;;;;12.57;1.23;;;;;;;;;;5006643;28;20310;-80
2022/02/19 06:48:10;;;;;;;9.70;0.90;;;;;;;;;;5006044;28;20691;-78
2022/02/19 06:50:37;;;;;;;9.17;1.50;;;;;;;;;;5004791;28;20205;-79
2022/02/19 06:53:04;;;;;;;9.60;1.23;;;;;;;;;;5008614;28;20200;-79
2022/02/19 06:55:32;;;;;;;7.33;1.20;;;;;;;;;;5008811;28;20230;-79
2022/02/19 06:58:00;;;;;;;7.37;1.33;;;;;;;;;;5006393;28;20232;-79
2022/02/19 07:00:27;;;;;;;5.10;1.23;;;;;;;;;;5011305;28;20222;-77
2022/02/19 07:02:54;;;;;;;7.57;1.70;;;;;;;;;;5008312;28;20208;-79
2022/02/19 07:05:22;;;;;;;11.37;1.20;;;;;;;;;;5005610;28;20351;-79
2022/02/19 07:07:49;;;;;;;10.03;1.37;;;;;;;;;;5007569;28;20270;-80
2022/02/19 07:10:16;;;;;;;7.20;1.27;;;;;;;;;;5005095;28;20211;-78
2022/02/19 07:12:44;;;;;;;6.40;1.33;;;;;;;;;;5005823;28;20207;-78
2022/02/19 07:15:15;;;;;;;7.67;1.33;;;;;;;;;;5009959;28;20682;-79
2022/02/19 07:17:49;;;;;;;8.70;1.30;;;;;;;;;;5005551;28;20212;-79
2022/02/19 07:20:16;;;;;;;13.20;1.13;;;;;;;;;;5005830;28;20216;-80
2022/02/19 07:22:43;;;;;;;8.13;1.23;;;;;;;;;;5007072;28;21182;-81
2022/02/19 07:25:11;;;;;;;4.43;0.80;;;;;;;;;;5007721;28;20643;-81
2022/02/19 07:27:39;;;;;;;6.10;1.10;;;;;;;;;;5006624;28;20231;-80
2022/02/19 07:30:07;;;;;;;4.33;0.97;;;;;;;;;;5003415;28;20211;-81
2022/02/19 07:32:36;;;;;;;7.67;0.87;;;;;;;;;;5005600;28;20218;-81
2022/02/19 07:35:03;;;;;;;5.90;0.83;;;;;;;;;;5003322;28;20232;-80
2022/02/19 07:37:30;;;;;;;2.80;1.27;;;;;;;;;;5007149;28;20220;-81
2022/02/19 07:39:57;;;;;;;7.77;1.03;;;;;;;;;;5006397;28;20573;-80
2022/02/19 07:42:24;;;;;;;7.17;1.20;;;;;;;;;;4999641;28;20739;-81
2022/02/19 07:44:53;;;;;;;13.20;1.70;;;;;;;;;;5006889;28;20657;-80
2022/02/19 07:47:23;;;;;;;10.23;0.90;;;;;;;;;;5007385;28;20256;-80
2022/02/19 07:58:19;;;;;;;7.17;0.83;;;;;;;;;;5006516;28;20235;-81
2022/02/19 08:00:47;;;;;;;9.97;1.23;;;;;;;;;;5004389;28;20707;-81
2022/02/19 08:03:14;;;;;;;11.70;1.13;;;;;;;;;;5005244;28;20208;-80
2022/02/19 08:05:42;;;;;;;11.90;1.40;;;;;;;;;;5007454;28;20235;-80
2022/02/19 08:08:10;;;;;;;10.23;1.37;;;;;;;;;;5008505;28;20208;-80
2022/02/19 08:10:37;;;;;;;8.20;1.30;;;;;;;;;;5007834;28;20316;-81
2022/02/19 08:13:07;;;;;;;6.97;1.23;;;;;;;;;;5005602;28;20262;-80
2022/02/19 08:15:35;;;;;;;9.77;0.87;;;;;;;;;;5006875;28;20617;-80
2022/02/19 08:18:02;;;;;;;10.50;1.10;;;;;;;;;;5005787;28;20205;-80
2022/02/19 08:20:30;;;;;;;10.27;1.50;;;;;;;;;;5005705;28;20685;-80
2022/02/19 08:23:00;;;;;;;9.47;1.13;;;;;;;;;;5003629;28;20268;-81
2022/02/19 08:25:28;;;;;;;7.87;1.33;;;;;;;;;;5003696;28;20300;-79
2022/02/19 08:27:55;;;;;;;10.40;1.17;;;;;;;;;;5004906;28;20238;-80
2022/02/19 08:30:22;;;;;;;7.37;1.73;;;;;;;;;;5002624;28;20278;-80
2022/02/19 08:32:50;;;;;;;5.80;0.80;;;;;;;;;;5002758;28;20207;-80
2022/02/19 08:35:17;;;;;;;7.13;1.13;;;;;;;;;;5006267;28;20234;-79
2022/02/19 08:37:45;;;;;;;11.30;1.40;;;;;;;;;;5002184;28;20242;-81
2022/02/19 08:40:15;;;;;;;5.60;1.07;;;;;;;;;;5004634;28;20211;-79
2022/02/19 08:42:43;;;;;;;12.13;1.60;;;;;;;;;;5002960;28;20576;-79
2022/02/19 08:45:11;;;;;;;8.77;1.30;;;;;;;;;;5005216;28;20635;-80
2022/02/19 08:47:38;;;;;;;7.37;1.23;;;;;;;;;;5003143;28;20744;-80
2022/02/19 08:50:07;;;;;;;10.73;1.90;;;;;;;;;;5006078;28;20286;-79
2022/02/19 08:52:34;;;;;;;4.97;0.90;;;;;;;;;;5004081;28;20295;-81
2022/02/19 08:55:02;;;;;;;11.47;1.60;;;;;;;;;;5006950;28;20950;-80
2022/02/19 08:57:30;;;;;;;3.53;0.77;;;;;;;;;;5003436;28;20235;-81
2022/02/19 08:59:57;;;;;;;13.30;1.80;;;;;;;;;;5004667;28;20240;-79
2022/02/19 09:02:25;;;;;;;7.93;1.80;;;;;;;;;;5005885;28;20318;-79
2022/02/19 09:04:52;;;;;;;11.70;1.50;;;;;;;;;;5004248;28;20247;-79
2022/02/19 09:07:19;;;;;;;9.20;1.80;;;;;;;;;;5007226;28;21220;-81
2022/02/19 09:09:47;;;;;;;7.53;1.30;;;;;;;;;;5007219;28;20279;-80
2022/02/19 09:12:15;;;;;;;8.63;1.30;;;;;;;;;;5008208;28;20201;-80
2022/02/19 09:14:43;;;;;;;14.50;1.25;;;;;;;;;;5006741;28;20212;-79
2022/02/19 09:17:11;;;;;;;7.67;1.27;;;;;;;;;;5007668;28;20773;-80
2022/02/19 09:19:38;;;;;;;8.27;1.47;;;;;;;;;;5006903;28;20228;-80
2022/02/19 09:22:06;;;;;;;14.87;1.33;;;;;;;;;;5006947;28;20239;-80
2022/02/19 09:24:34;;;;;;;7.10;1.27;;;;;;;;;;5006286;28;20258;-79
2022/02/19 09:27:02;;;;;;;7.27;1.10;;;;;;;;;;5007118;28;20726;-81
2022/02/19 09:29:29;;;;;;;10.67;1.70;;;;;;;;;;5005725;28;20210;-79
2022/02/19 09:31:58;;;;;;;3.20;0.93;;;;;;;;;;5004396;28;20208;-81
2022/02/19 09:34:25;;;;;;;6.30;1.10;;;;;;;;;;5003320;28;20214;-81
2022/02/19 09:36:52;;;;;;;9.83;1.40;;;;;;;;;;5008113;28;20230;-80
2022/02/19 09:39:19;;;;;;;17.70;1.50;;;;;;;;;;5005569;28;20205;-78
2022/02/19 09:41:47;;;;;;;6.27;1.10;;;;;;;;;;5007209;28;20240;-78
2022/02/19 09:44:14;;;;;;;7.43;0.90;;;;;;;;;;5004054;28;20319;-78
2022/02/19 09:46:41;;;;;;;8.17;1.40;;;;;;;;;;5002383;28;20262;-79
2022/02/19 09:49:10;;;;;;;7.37;1.10;;;;;;;;;;5004035;28;20222;-78
2022/02/19 09:51:38;;;;;;;6.50;1.33;;;;;;;;;;5003825;28;20295;-79
2022/02/19 09:54:05;;;;;;;10.47;1.53;;;;;;;;;;5007686;28;20214;-79
2022/02/19 09:56:33;;;;;;;8.97;1.37;;;;;;;;;;5007058;28;20236;-78
2022/02/19 09:59:00;;;;;;;14.90;1.73;;;;;;;;;;5005869;28;20331;-80
2022/02/19 10:01:28;;;;;;;14.23;1.47;;;;;;;;;;5005612;28;20334;-84
2022/02/19 10:03:57;;;;;;;7.67;1.00;;;;;;;;;;5009386;28;20238;-78
2022/02/19 10:06:29;;;;;;;7.60;0.93;;;;;;;;;;4998961;28;20234;-78
2022/02/19 10:09:10;;;;;;;9.13;1.20;;;;;;;;;;4999349;28;20999;-78
2022/02/19 10:11:37;;;;;;;10.40;1.70;;;;;;;;;;5003276;28;20200;-78
2022/02/19 10:14:20;;;;;;;13.43;1.30;;;;;;;;;;5005002;28;20236;-78
2022/02/19 10:17:02;;;;;;;12.93;1.63;;;;;;;;;;5006806;28;20231;-79
2022/02/19 10:19:29;;;;;;;6.80;1.37;;;;;;;;;;5004799;28;20216;-79
2022/02/19 10:22:10;;;;;;;11.50;1.37;;;;;;;;;;5005258;28;21334;-78
2022/02/19 10:24:38;;;;;;;5.10;1.13;;;;;;;;;;5005559;28;20215;-79
2022/02/19 10:27:05;;;;;;;7.43;1.37;;;;;;;;;;5012510;28;20224;-79
2022/02/19 10:29:46;;;;;;;10.27;1.50;;;;;;;;;;5006549;28;20313;-78
2022/02/19 10:32:14;;;;;;;10.07;1.13;;;;;;;;;;5006144;28;20209;-79
2022/02/19 10:34:55;;;;;;;5.50;1.17;;;;;;;;;;5007977;28;20692;-79
2022/02/19 10:37:26;;;;;;;8.27;1.10;;;;;;;;;;5005762;28;20323;-79
2022/02/19 10:39:53;;;;;;;3.93;0.70;;;;;;;;;;5010581;28;20255;-79
2022/02/19 10:42:32;;;;;;;9.83;1.00;;;;;;;;;;5006838;28;20204;-80
2022/02/19 10:44:59;;;;;;;10.13;1.40;;;;;;;;;;5008835;28;20205;-79
2022/02/19 10:47:29;;;;;;;3.73;0.90;;;;;;;;;;5010819;28;20232;-79
2022/02/19 10:50:07;;;;;;;6.80;1.30;;;;;;;;;;5010256;28;20208;-79
2022/02/19 10:52:35;;;;;;;10.37;1.30;;;;;;;;;;5009504;28;20208;-79
2022/02/19 10:55:03;;;;;;;7.17;0.80;;;;;;;;;;5006153;28;20298;-79
2022/02/19 10:57:31;;;;;;;10.13;1.70;;;;;;;;;;5009141;28;20680;-79
2022/02/19 10:59:58;;;;;;;5.00;0.73;;;;;;;;;;5008925;28;20239;-79
2022/02/19 11:02:27;;;;;;;6.30;0.97;;;;;;;;;;5010448;28;20709;-79
2022/02/19 11:04:54;;;;;;;2.53;0.60;;;;;;;;;;5010947;28;20244;-80
2022/02/19 11:07:21;;;;;;;4.40;0.87;;;;;;;;;;5006767;28;20340;-79
2022/02/19 11:09:50;;;;;;;7.10;1.23;;;;;;;;;;5008869;28;20567;-79
2022/02/19 11:12:17;;;;;;;8.77;1.00;;;;;;;;;;5010510;28;20264;-79
2022/02/19 11:14:44;;;;;;;8.33;0.90;;;;;;;;;;5010385;28;20200;-79
2022/02/19 11:17:12;;;;;;;6.33;1.03;;;;;;;;;;5036861;22;20511;-77
2022/02/19 11:19:40;;;;;;;9.37;0.83;;;;;;;;;;5061324;28;20597;-78
2022/02/19 11:22:08;;;;;;;4.33;0.73;;;;;;;;;;5059953;28;20780;-77
2022/02/19 11:24:36;;;;;;;1.93;0.70;;;;;;;;;;5053574;28;20675;-77
2022/02/19 11:27:06;;;;;;;5.90;0.93;;;;;;;;;;5054953;28;20784;-77
2022/02/19 11:29:33;;;;;;;9.07;0.90;;;;;;;;;;5054370;28;20225;-77
2022/02/19 11:32:02;;;;;;;8.03;0.90;;;;;;;;;;5055994;28;20194;-77
2022/02/19 11:34:29;;;;;;;6.67;1.30;;;;;;;;;;5053251;28;20213;-77
2022/02/19 11:37:13;;;;;;;4.77;0.97;;;;;;;;;;5051801;28;20238;-77
2022/02/19 11:39:55;;;;;;;2.10;0.53;;;;;;;;;;5061481;28;20213;-76
2022/02/19 11:42:36;;;;;;;7.67;1.00;;;;;;;;;;5055912;28;20228;-78
2022/02/19 11:45:17;;;;;;;3.57;0.57;;;;;;;;;;5060810;28;20199;-77
2022/02/19 11:47:45;;;;;;;2.40;0.60;;;;;;;;;;5060017;28;20195;-77
2022/02/19 11:50:19;;;;;;;7.57;1.00;;;;;;;;;;5062187;28;20203;-77
2022/02/19 11:52:46;;;;;;;6.80;1.10;;;;;;;;;;5060235;28;20217;-77
2022/02/19 11:55:29;;;;;;;5.17;1.10;;;;;;;;;;5060265;28;20207;-77
2022/02/19 11:58:05;;;;;;;3.63;1.03;;;;;;;;;;5059352;28;20473;-77
2022/02/19 12:00:45;;;;;;;4.97;0.80;;;;;;;;;;5057884;28;20316;-77
2022/02/19 12:03:34;;;;;;;6.10;0.90;;;;;;;;;;5063694;28;20733;-77
2022/02/19 12:06:14;;;;;;;6.23;0.73;;;;;;;;;;5056050;28;20723;-77
2022/02/19 12:08:59;;;;;;;3.77;1.30;;;;;;;;;;5062080;28;20261;-76
2022/02/19 12:11:27;;;;;;;7.80;1.20;;;;;;;;;;5051142;28;20279;-77
2022/02/19 12:13:57;;;;;;;4.27;0.97;;;;;;;;;;5057143;28;20198;-77
2022/02/19 12:16:42;;;;;;;2.20;0.70;;;;;;;;;;5061546;28;20214;-77
2022/02/19 12:19:10;;;;;;;8.17;1.20;;;;;;;;;;5060387;28;20928;-76
2022/02/19 12:21:38;;;;;;;4.93;1.03;;;;;;;;;;5057496;28;20281;-77
2022/02/19 12:24:11;;;;;;;7.43;1.70;;;;;;;;;;5061940;28;20203;-77
2022/02/19 12:26:57;;;;;;;3.27;1.10;;;;;;;;;;5059431;28;20313;-78
2022/02/19 12:29:26;;;;;;;3.80;1.13;;;;;;;;;;5059283;28;20234;-79
2022/02/19 12:32:03;;;;;;;3.20;0.80;;;;;;;;;;5062404;28;20201;-79
2022/02/19 12:34:31;;;;;;;5.83;0.80;;;;;;;;;;5058025;28;20685;-78
2022/02/19 12:36:59;;;;;;;3.37;0.60;;;;;;;;;;5057695;28;20226;-79
2022/02/19 12:39:26;;;;;;;3.63;0.90;;;;;;;;;;5055035;28;20200;-79
2022/02/19 12:41:55;;;;;;;4.53;1.00;;;;;;;;;;5061140;28;20656;-79
2022/02/19 12:44:22;;;;;;;5.83;1.10;;;;;;;;;;5058597;28;20198;-78
2022/02/19 12:46:52;;;;;;;4.83;0.63;;;;;;;;;;5059310;28;20242;-79
2022/02/19 12:49:20;;;;;;;3.33;0.70;;;;;;;;;;5060292;28;20210;-79
2022/02/19 12:51:54;;;;;;;3.07;0.70;;;;;;;;;;5059518;28;20215;-78
2022/02/19 12:54:32;;;;;;;2.37;0.50;;;;;;;;;;5056358;28;20208;-78
2022/02/19 12:57:00;;;;;;;5.37;0.70;;;;;;;;;;5053134;28;20229;-78
2022/02/19 12:59:30;;;;;;;3.27;1.00;;;;;;;;;;5061734;28;20206;-78
2022/02/19 13:02:00;;;;;;;4.83;0.90;;;;;;;;;;5058732;28;20220;-79
2022/02/19 13:04:35;;;;;;;2.57;0.50;;;;;;;;;;5062257;28;20206;-77
2022/02/19 13:07:03;;;;;;;3.97;1.03;;;;;;;;;;5055589;28;20272;-78
2022/02/19 13:09:30;;;;;;;1.67;0.67;;;;;;;;;;5060593;28;20727;-78
2022/02/19 13:11:58;;;;;;;2.17;0.53;;;;;;;;;;5058181;28;20210;-77
2022/02/19 13:14:27;;;;;;;2.23;0.70;;;;;;;;;;5054756;28;20298;-77
2022/02/19 13:17:00;;;;;;;4.70;0.90;;;;;;;;;;5054751;28;20313;-78
2022/02/19 13:19:28;;;;;;;3.83;0.67;;;;;;;;;;5054580;28;20265;-78
2022/02/19 13:22:08;;;;;;;8.33;0.90;;;;;;;;;;5053282;28;20289;-79
2022/02/19 13:24:37;;;;;;;6.43;0.97;;;;;;;;;;5057095;28;20292;-79
2022/02/19 13:27:11;;;;;;;3.50;0.90;;;;;;;;;;5060106;28;20313;-79
2022/02/19 13:29:38;;;;;;;1.77;0.60;;;;;;;;;;5061414;28;20214;-78
2022/02/19 13:32:07;;;;;;;3.80;0.87;;;;;;;;;;5064281;28;20245;-77
2022/02/19 13:34:36;;;;;;;3.10;0.90;;;;;;;;;;5069194;28;20657;-76
2022/02/19 13:37:03;;;;;;;4.00;0.80;;;;;;;;;;5065938;28;20225;-77
2022/02/19 13:39:37;;;;;;;9.10;0.90;;;;;;;;;;5063612;28;20289;-78
2022/02/19 13:42:05;;;;;;;4.50;0.80;;;;;;;;;;5064400;28;20766;-78
2022/02/19 13:44:32;;;;;;;2.63;0.70;;;;;;;;;;5064203;28;20225;-77
2022/02/19 13:46:59;;;;;;;4.27;0.70;;;;;;;;;;5062294;28;20310;-78
2022/02/19 13:49:36;;;;;;;3.77;0.83;;;;;;;;;;5062617;28;20582;-78
2022/02/19 13:52:04;;;;;;;4.60;0.83;;;;;;;;;;5061857;28;20194;-78
2022/02/19 13:54:39;;;;;;;3.13;0.87;;;;;;;;;;5061002;28;20217;-78
2022/02/19 13:57:19;;;;;;;8.43;1.30;;;;;;;;;;5059215;28;20227;-77
2022/02/19 14:00:00;;;;;;;1.67;0.53;;;;;;;;;;5060115;28;20262;-77
2022/02/19 14:02:28;;;;;;;10.40;1.07;;;;;;;;;;5062029;28;20695;-78
2022/02/19 14:05:01;;;;;;;7.00;0.93;;;;;;;;;;5061671;28;20622;-78
2022/02/19 14:07:29;;;;;;;9.30;1.33;;;;;;;;;;5060815;28;20245;-79
2022/02/19 14:10:06;;;;;;;11.63;0.97;;;;;;;;;;5065118;28;20235;-78
2022/02/19 14:12:37;;;;;;;8.53;1.50;;;;;;;;;;5060711;28;20209;-77
2022/02/19 14:15:05;;;;;;;7.87;1.00;;;;;;;;;;5060745;28;20301;-78
2022/02/19 14:17:39;;;;;;;8.23;0.90;;;;;;;;;;5062338;28;20322;-78
2022/02/19 14:20:10;;;;;;;6.43;1.07;;;;;;;;;;5061224;28;20552;-78
2022/02/19 14:22:41;;;;;;;7.80;0.90;;;;;;;;;;5061092;28;20202;-78
2022/02/19 14:25:09;;;;;;;8.37;0.83;;;;;;;;;;5059938;28;20225;-79
2022/02/19 14:27:48;;;;;;;6.43;1.00;;;;;;;;;;5058198;28;20230;-78
2022/02/19 14:30:15;;;;;;;5.37;1.00;;;;;;;;;;5060431;28;20230;-78
2022/02/19 14:32:43;;;;;;;4.53;0.90;;;;;;;;;;5067240;28;20210;-78
2022/02/19 14:35:12;;;;;;;3.53;0.90;;;;;;;;;;5060149;28;20210;-79
2022/02/19 14:37:39;;;;;;;6.63;1.00;;;;;;;;;;5062906;28;20223;-78
2022/02/19 14:40:07;;;;;;;7.43;1.30;;;;;;;;;;5064504;28;20285;-78
2022/02/19 14:42:36;;;;;;;4.60;1.00;;;;;;;;;;5066723;28;20261;-76
2022/02/19 14:45:04;;;;;;;5.70;1.20;;;;;;;;;;5068025;28;20241;-77
2022/02/19 14:47:31;;;;;;;8.73;2.00;;;;;;;;;;5061122;28;20666;-77
2022/02/19 14:49:58;;;;;;;6.60;2.67;;;;;;;;;;5060625;28;20290;-78
2022/02/19 14:52:27;;;;;;;4.97;1.70;;;;;;;;;;5066430;28;20203;-77
2022/02/19 14:54:54;;;;;;;3.90;1.10;;;;;;;;;;5061927;28;20203;-77
2022/02/19 14:57:21;;;;;;;6.47;1.30;;;;;;;;;;5060307;28;20215;-78
2022/02/19 14:59:48;;;;;;;5.93;1.30;;;;;;;;;;5071840;28;20597;-78
2022/02/19 15:02:16;;;;;;;6.20;2.50;;;;;;;;;;5055771;28;20732;-78